CheckWX is a tool to help pilots better visualize weather data.  It is not intended as a substitute for an official pre-flight weather briefing.

12:40:31 UTC

CYIO METAR
Pond Inlet Airport
Pond Inlet, Canada
Current

41 mins ago

CYIO 181200Z AUTO VRB02KT 9SM CLR M32/M35 A2993 RMK SLP148
Observed
Feb-18 @ 12:00 UTC
Wind
  • Variable at 2 KTS
Visibility
9 SM
Flight Rules
VFR
Cloud Levels
  • Clear skies
Temperature
-32°C / -26°F
Dewpoint
-35°C / -31°F
Humidity
75%
Altimeter
29.93" Hg
Pressure
1014.8 hPa
Previous

2 hours ago

CYIO 181100Z AUTO 23002KT 9SM CLR M34/M37 A2995 RMK SLP155
Observed
Feb-18 @ 11:00 UTC
Wind
  • 230° at 2 KTS
Visibility
9 SM
Flight Rules
VFR
Cloud Levels
  • Clear skies
Temperature
-34°C / -29°F
Dewpoint
-37°C / -35°F
Humidity
74%
Altimeter
29.95" Hg
Pressure
1015.5 hPa
Previous

3 hours ago

CYIO 181000Z AUTO 23003KT 180V240 9SM CLR M33/M37 A2996 RMK SLP161
Observed
Feb-18 @ 10:00 UTC
Wind
  • 230° at 3 KTS
Visibility
9 SM
Flight Rules
VFR
Cloud Levels
  • Clear skies
Temperature
-33°C / -27°F
Dewpoint
-37°C / -35°F
Humidity
67%
Altimeter
29.96" Hg
Pressure
1016.1 hPa